Long Lake, Minnesota
Current Conditions -  °F | °C
As of 1:53 AM on Saturday 20 Dec 2014 (Local Time) from KMIC Reporting Station
Haze Haze  
Wind Chill: 22°   Ceiling: 1100
Heat Index: 30°   Visibility: 6mi
Dew Point: 26°   Wind: 8mph
Humidity: 85%   Direction: 150°SSE
Pressure: 30.15"   Gusts: NA
Location:  44.99°N, 93.57°W
Report Text: KMIC 200753Z AUTO 15007KT 6SM BR OVC011 M01/M03 A3015 RMK AO2 SLP221 T10111033
Loading
Personal Weather Stations






























Interactive Weather Map New forecast layout! Learn more

10-Day Weather Forecast

Advertisements
Track Severe Weather on mobile